Terminal Aerodrome Forecast
Issued by NWS

Home | Current Version | Previous Version | Text Only | Print | Product List | Glossary On
Versions: 1 2 3 4 5 6 7 8 9 10 11 12 13 14
000
FTUS45 KTFX 071735
TAFHVR
TAF
KHVR 071735Z 0718/0818 26007KT P6SM VCSH BKN070
     FM071900 36010KT P6SM VCTS SCT070CB BKN100
     FM080100 04008KT P6SM BKN120
     FM080700 08006KT P6SM SKC=

USA.gov is the U.S. government's official web portal to all federal, state and local government web resources and services.